<?xml version="1.0" encoding="UTF-8" standalone="no" ?>
<gpx xmlns="http://www.topografix.com/GPX/1/1" xmlns:xsi="http://www.w3.org/2001/XMLSchema-instance" xsi:schemaLocation="http://www.topografix.com/GPX/1/1 http://www.topografix.com/GPX/1/1/gpx.xsd" version="1.1" creator="VisuGPX - https://www.visugpx.com">
  <metadata>
    <name>Sortie à VTT Durcet bois de la mousse durcet</name>
  </metadata>
  <trk>
    <name><![CDATA[Sortie à VTT Durcet bois de la mousse durcet]]></name>
    <trkseg>
      <trkpt lat="48.74992" lon="-0.43867">
        <ele>252.571883</ele>
        <time>2020-08-02T16:54:22.920Z</time>
      </trkpt>
      <trkpt lat="48.74989" lon="-0.43861">
        <ele>252.571883</ele>
        <time>2020-08-02T16:54:24.455Z</time>
      </trkpt>
      <trkpt lat="48.74975" lon="-0.4382">
        <ele>252.571883</ele>
        <time>2020-08-02T16:54:33.319Z</time>
      </trkpt>
      <trkpt lat="48.75076" lon="-0.43895">
        <ele>251.470594</ele>
        <time>2020-08-02T16:54:52.231Z</time>
      </trkpt>
      <trkpt lat="48.75128" lon="-0.43938">
        <ele>250.338477</ele>
        <time>2020-08-02T16:55:01.520Z</time>
      </trkpt>
      <trkpt lat="48.75141" lon="-0.43977">
        <ele>249.795867</ele>
        <time>2020-08-02T16:55:06.153Z</time>
      </trkpt>
      <trkpt lat="48.75158" lon="-0.44006">
        <ele>249.303597</ele>
        <time>2020-08-02T16:55:10.605Z</time>
      </trkpt>
      <trkpt lat="48.75228" lon="-0.44045">
        <ele>249.714636</ele>
        <time>2020-08-02T16:55:24.812Z</time>
      </trkpt>
      <trkpt lat="48.75246" lon="-0.44057">
        <ele>249.880107</ele>
        <time>2020-08-02T16:55:28.775Z</time>
      </trkpt>
      <trkpt lat="48.75253" lon="-0.43995">
        <ele>250.228681</ele>
        <time>2020-08-02T16:55:45.090Z</time>
      </trkpt>
      <trkpt lat="48.7525" lon="-0.4388">
        <ele>251.327542</ele>
        <time>2020-08-02T16:56:18.694Z</time>
      </trkpt>
      <trkpt lat="48.75269" lon="-0.43835">
        <ele>252.298781</ele>
        <time>2020-08-02T16:56:35.760Z</time>
      </trkpt>
      <trkpt lat="48.75259" lon="-0.43799">
        <ele>253.005945</ele>
        <time>2020-08-02T16:56:49.077Z</time>
      </trkpt>
      <trkpt lat="48.75271" lon="-0.43698">
        <ele>254.876948</ele>
        <time>2020-08-02T16:57:20.728Z</time>
      </trkpt>
      <trkpt lat="48.75235" lon="-0.43661">
        <ele>255.747053</ele>
        <time>2020-08-02T16:57:39.183Z</time>
      </trkpt>
      <trkpt lat="48.75298" lon="-0.43597">
        <ele>256.264799</ele>
        <time>2020-08-02T16:58:07.947Z</time>
      </trkpt>
      <trkpt lat="48.75283" lon="-0.43557">
        <ele>256.473709</ele>
        <time>2020-08-02T16:58:16.120Z</time>
      </trkpt>
      <trkpt lat="48.75276" lon="-0.43495">
        <ele>256.753386</ele>
        <time>2020-08-02T16:58:26.189Z</time>
      </trkpt>
      <trkpt lat="48.75246" lon="-0.43451">
        <ele>256.536467</ele>
        <time>2020-08-02T16:58:35.958Z</time>
      </trkpt>
      <trkpt lat="48.75246" lon="-0.43417">
        <ele>256.254015</ele>
        <time>2020-08-02T16:58:41.193Z</time>
      </trkpt>
      <trkpt lat="48.75249" lon="-0.43378">
        <ele>255.930077</ele>
        <time>2020-08-02T16:58:47.028Z</time>
      </trkpt>
      <trkpt lat="48.7526" lon="-0.43375">
        <ele>255.794466</ele>
        <time>2020-08-02T16:58:48.813Z</time>
      </trkpt>
      <trkpt lat="48.75267" lon="-0.43376">
        <ele>255.711888</ele>
        <time>2020-08-02T16:58:49.858Z</time>
      </trkpt>
      <trkpt lat="48.75359" lon="-0.43384">
        <ele>254.524106</ele>
        <time>2020-08-02T16:59:04.836Z</time>
      </trkpt>
      <trkpt lat="48.75569" lon="-0.43364">
        <ele>250.432179</ele>
        <time>2020-08-02T16:59:37.778Z</time>
      </trkpt>
      <trkpt lat="48.75729" lon="-0.43337">
        <ele>245.980487</ele>
        <time>2020-08-02T17:00:01.546Z</time>
      </trkpt>
      <trkpt lat="48.75765" lon="-0.43316">
        <ele>244.476546</ele>
        <time>2020-08-02T17:00:07.006Z</time>
      </trkpt>
      <trkpt lat="48.7582" lon="-0.43283">
        <ele>242.188265</ele>
        <time>2020-08-02T17:00:15.172Z</time>
      </trkpt>
      <trkpt lat="48.75916" lon="-0.4322">
        <ele>237.903962</ele>
        <time>2020-08-02T17:00:29.332Z</time>
      </trkpt>
      <trkpt lat="48.76049" lon="-0.43076">
        <ele>230.668875</ele>
        <time>2020-08-02T17:00:51.596Z</time>
      </trkpt>
      <trkpt lat="48.76212" lon="-0.42941">
        <ele>223.269204</ele>
        <time>2020-08-02T17:01:19.073Z</time>
      </trkpt>
      <trkpt lat="48.76286" lon="-0.42864">
        <ele>220.078152</ele>
        <time>2020-08-02T17:01:32.609Z</time>
      </trkpt>
      <trkpt lat="48.76324" lon="-0.42811">
        <ele>218.253937</ele>
        <time>2020-08-02T17:01:40.433Z</time>
      </trkpt>
      <trkpt lat="48.76363" lon="-0.42771">
        <ele>216.741173</ele>
        <time>2020-08-02T17:01:47.560Z</time>
      </trkpt>
      <trkpt lat="48.76414" lon="-0.42751">
        <ele>215.069801</ele>
        <time>2020-08-02T17:01:55.628Z</time>
      </trkpt>
      <trkpt lat="48.76471" lon="-0.42752">
        <ele>213.273574</ele>
        <time>2020-08-02T17:02:04.264Z</time>
      </trkpt>
      <trkpt lat="48.76639" lon="-0.42696">
        <ele>208.250492</ele>
        <time>2020-08-02T17:02:31.207Z</time>
      </trkpt>
      <trkpt lat="48.76667" lon="-0.42687">
        <ele>207.436111</ele>
        <time>2020-08-02T17:02:35.639Z</time>
      </trkpt>
      <trkpt lat="48.76709" lon="-0.42681">
        <ele>205.987795</ele>
        <time>2020-08-02T17:02:42.216Z</time>
      </trkpt>
      <trkpt lat="48.76758" lon="-0.42691">
        <ele>204.174754</ele>
        <time>2020-08-02T17:02:49.927Z</time>
      </trkpt>
      <trkpt lat="48.7678" lon="-0.42691">
        <ele>203.403354</ele>
        <time>2020-08-02T17:02:53.055Z</time>
      </trkpt>
      <trkpt lat="48.76838" lon="-0.42683">
        <ele>201.266618</ele>
        <time>2020-08-02T17:03:01.825Z</time>
      </trkpt>
      <trkpt lat="48.769" lon="-0.4271">
        <ele>198.099503</ele>
        <time>2020-08-02T17:03:11.057Z</time>
      </trkpt>
      <trkpt lat="48.77009" lon="-0.42701">
        <ele>192.131353</ele>
        <time>2020-08-02T17:03:26.149Z</time>
      </trkpt>
      <trkpt lat="48.77155" lon="-0.42718">
        <ele>183.15904</ele>
        <time>2020-08-02T17:03:46.237Z</time>
      </trkpt>
      <trkpt lat="48.77209" lon="-0.42713">
        <ele>179.818657</ele>
        <time>2020-08-02T17:03:53.510Z</time>
      </trkpt>
      <trkpt lat="48.7728" lon="-0.42753">
        <ele>175.978505</ele>
        <time>2020-08-02T17:04:03.921Z</time>
      </trkpt>
      <trkpt lat="48.77313" lon="-0.42779">
        <ele>174.159936</ele>
        <time>2020-08-02T17:04:09.143Z</time>
      </trkpt>
      <trkpt lat="48.77347" lon="-0.4281">
        <ele>172.212417</ele>
        <time>2020-08-02T17:04:14.943Z</time>
      </trkpt>
      <trkpt lat="48.77384" lon="-0.42854">
        <ele>170.313626</ele>
        <time>2020-08-02T17:04:22.161Z</time>
      </trkpt>
      <trkpt lat="48.77396" lon="-0.42745">
        <ele>169.067855</ele>
        <time>2020-08-02T17:04:33.775Z</time>
      </trkpt>
      <trkpt lat="48.77411" lon="-0.42675">
        <ele>168.23035</ele>
        <time>2020-08-02T17:04:42.467Z</time>
      </trkpt>
      <trkpt lat="48.77431" lon="-0.42623">
        <ele>167.555196</ele>
        <time>2020-08-02T17:04:50.175Z</time>
      </trkpt>
      <trkpt lat="48.77452" lon="-0.42599">
        <ele>167.395074</ele>
        <time>2020-08-02T17:04:55.704Z</time>
      </trkpt>
      <trkpt lat="48.77591" lon="-0.42516">
        <ele>166.931716</ele>
        <time>2020-08-02T17:05:24.431Z</time>
      </trkpt>
      <trkpt lat="48.77621" lon="-0.42484">
        <ele>166.841434</ele>
        <time>2020-08-02T17:05:31.394Z</time>
      </trkpt>
      <trkpt lat="48.7772" lon="-0.42282">
        <ele>166.28584</ele>
        <time>2020-08-02T17:06:04.598Z</time>
      </trkpt>
      <trkpt lat="48.77737" lon="-0.42238">
        <ele>165.738891</ele>
        <time>2020-08-02T17:06:10.814Z</time>
      </trkpt>
      <trkpt lat="48.77742" lon="-0.42228">
        <ele>165.606596</ele>
        <time>2020-08-02T17:06:12.248Z</time>
      </trkpt>
      <trkpt lat="48.77751" lon="-0.42208">
        <ele>165.349192</ele>
        <time>2020-08-02T17:06:15.071Z</time>
      </trkpt>
      <trkpt lat="48.77791" lon="-0.42172">
        <ele>164.595672</ele>
        <time>2020-08-02T17:06:22.955Z</time>
      </trkpt>
      <trkpt lat="48.77839" lon="-0.42205">
        <ele>163.73908</ele>
        <time>2020-08-02T17:06:31.432Z</time>
      </trkpt>
      <trkpt lat="48.77888" lon="-0.42245">
        <ele>162.009727</ele>
        <time>2020-08-02T17:06:40.085Z</time>
      </trkpt>
      <trkpt lat="48.78008" lon="-0.42406">
        <ele>157.055128</ele>
        <time>2020-08-02T17:07:03.876Z</time>
      </trkpt>
      <trkpt lat="48.78057" lon="-0.42437">
        <ele>156.164221</ele>
        <time>2020-08-02T17:07:12.603Z</time>
      </trkpt>
      <trkpt lat="48.78101" lon="-0.4248">
        <ele>155.27055</ele>
        <time>2020-08-02T17:07:21.789Z</time>
      </trkpt>
      <trkpt lat="48.78152" lon="-0.42563">
        <ele>154.454874</ele>
        <time>2020-08-02T17:07:35.873Z</time>
      </trkpt>
      <trkpt lat="48.78162" lon="-0.42398">
        <ele>154.42791</ele>
        <time>2020-08-02T17:07:58.948Z</time>
      </trkpt>
      <trkpt lat="48.78185" lon="-0.42343">
        <ele>154.417374</ele>
        <time>2020-08-02T17:08:07.819Z</time>
      </trkpt>
      <trkpt lat="48.7822" lon="-0.42301">
        <ele>154.650018</ele>
        <time>2020-08-02T17:08:16.765Z</time>
      </trkpt>
      <trkpt lat="48.78244" lon="-0.42247">
        <ele>154.879089</ele>
        <time>2020-08-02T17:08:26.311Z</time>
      </trkpt>
      <trkpt lat="48.78245" lon="-0.42147">
        <ele>155.23165</ele>
        <time>2020-08-02T17:08:42.602Z</time>
      </trkpt>
      <trkpt lat="48.78255" lon="-0.42107">
        <ele>155.382845</ele>
        <time>2020-08-02T17:08:49.892Z</time>
      </trkpt>
      <trkpt lat="48.78293" lon="-0.41932">
        <ele>155.725779</ele>
        <time>2020-08-02T17:09:18.692Z</time>
      </trkpt>
      <trkpt lat="48.78318" lon="-0.41854">
        <ele>155.889177</ele>
        <time>2020-08-02T17:09:29.885Z</time>
      </trkpt>
      <trkpt lat="48.78321" lon="-0.41825">
        <ele>155.460752</ele>
        <time>2020-08-02T17:09:33.471Z</time>
      </trkpt>
      <trkpt lat="48.78311" lon="-0.41726">
        <ele>154.009947</ele>
        <time>2020-08-02T17:09:44.702Z</time>
      </trkpt>
      <trkpt lat="48.78313" lon="-0.41657">
        <ele>152.995863</ele>
        <time>2020-08-02T17:09:51.782Z</time>
      </trkpt>
      <trkpt lat="48.78326" lon="-0.41618">
        <ele>152.373522</ele>
        <time>2020-08-02T17:09:55.982Z</time>
      </trkpt>
      <trkpt lat="48.78338" lon="-0.41601">
        <ele>152.007393</ele>
        <time>2020-08-02T17:09:58.458Z</time>
      </trkpt>
      <trkpt lat="48.78352" lon="-0.41595">
        <ele>151.788164</ele>
        <time>2020-08-02T17:10:00.667Z</time>
      </trkpt>
      <trkpt lat="48.78406" lon="-0.4159">
        <ele>151.138381</ele>
        <time>2020-08-02T17:10:09.328Z</time>
      </trkpt>
      <trkpt lat="48.78411" lon="-0.41594">
        <ele>151.065904</ele>
        <time>2020-08-02T17:10:10.169Z</time>
      </trkpt>
      <trkpt lat="48.78424" lon="-0.41611">
        <ele>150.867722</ele>
        <time>2020-08-02T17:10:13.095Z</time>
      </trkpt>
      <trkpt lat="48.78437" lon="-0.41625">
        <ele>150.674295</ele>
        <time>2020-08-02T17:10:16.014Z</time>
      </trkpt>
      <trkpt lat="48.7845" lon="-0.41632">
        <ele>150.50481</ele>
        <time>2020-08-02T17:10:18.434Z</time>
      </trkpt>
      <trkpt lat="48.78474" lon="-0.41628">
        <ele>150.219517</ele>
        <time>2020-08-02T17:10:23.056Z</time>
      </trkpt>
      <trkpt lat="48.78492" lon="-0.41579">
        <ele>149.781907</ele>
        <time>2020-08-02T17:10:31.040Z</time>
      </trkpt>
      <trkpt lat="48.78497" lon="-0.41569">
        <ele>149.995158</ele>
        <time>2020-08-02T17:10:33.226Z</time>
      </trkpt>
      <trkpt lat="48.78488" lon="-0.41549">
        <ele>150.51041</ele>
        <time>2020-08-02T17:10:39.864Z</time>
      </trkpt>
      <trkpt lat="48.78488" lon="-0.41549">
        <ele>150.51041</ele>
        <time>2020-08-02T17:10:40.046Z</time>
      </trkpt>
      <trkpt lat="48.78492" lon="-0.41338">
        <ele>154.94288</ele>
        <time>2020-08-02T17:11:49.317Z</time>
      </trkpt>
      <trkpt lat="48.78479" lon="-0.41331">
        <ele>155.381461</ele>
        <time>2020-08-02T17:11:57.512Z</time>
      </trkpt>
      <trkpt lat="48.78456" lon="-0.41284">
        <ele>156.880155</ele>
        <time>2020-08-02T17:12:18.125Z</time>
      </trkpt>
      <trkpt lat="48.78435" lon="-0.4119">
        <ele>159.424829</ele>
        <time>2020-08-02T17:12:51.334Z</time>
      </trkpt>
      <trkpt lat="48.78418" lon="-0.41145">
        <ele>160.762744</ele>
        <time>2020-08-02T17:13:08.938Z</time>
      </trkpt>
      <trkpt lat="48.78414" lon="-0.41121">
        <ele>161.413574</ele>
        <time>2020-08-02T17:13:17.779Z</time>
      </trkpt>
      <trkpt lat="48.78418" lon="-0.4107">
        <ele>162.730173</ele>
        <time>2020-08-02T17:13:34.715Z</time>
      </trkpt>
      <trkpt lat="48.7841" lon="-0.41027">
        <ele>163.913902</ele>
        <time>2020-08-02T17:13:49.356Z</time>
      </trkpt>
      <trkpt lat="48.78419" lon="-0.40993">
        <ele>164.890342</ele>
        <time>2020-08-02T17:13:58.605Z</time>
      </trkpt>
      <trkpt lat="48.78419" lon="-0.40981">
        <ele>165.201864</ele>
        <time>2020-08-02T17:14:01.534Z</time>
      </trkpt>
      <trkpt lat="48.78421" lon="-0.40971">
        <ele>165.479604</ele>
        <time>2020-08-02T17:14:05.546Z</time>
      </trkpt>
      <trkpt lat="48.78455" lon="-0.4092">
        <ele>167.402559</ele>
        <time>2020-08-02T17:14:29.842Z</time>
      </trkpt>
      <trkpt lat="48.78469" lon="-0.40886">
        <ele>168.467801</ele>
        <time>2020-08-02T17:14:43.941Z</time>
      </trkpt>
      <trkpt lat="48.78488" lon="-0.40671">
        <ele>175.318797</ele>
        <time>2020-08-02T17:16:01.501Z</time>
      </trkpt>
      <trkpt lat="48.78484" lon="-0.40574">
        <ele>178.532405</ele>
        <time>2020-08-02T17:16:40.124Z</time>
      </trkpt>
      <trkpt lat="48.78506" lon="-0.40479">
        <ele>183.294612</ele>
        <time>2020-08-02T17:17:22.090Z</time>
      </trkpt>
      <trkpt lat="48.78509" lon="-0.4045">
        <ele>184.722846</ele>
        <time>2020-08-02T17:17:35.477Z</time>
      </trkpt>
      <trkpt lat="48.78454" lon="-0.40415">
        <ele>189.070362</ele>
        <time>2020-08-02T17:18:18.548Z</time>
      </trkpt>
      <trkpt lat="48.78442" lon="-0.40393">
        <ele>190.444615</ele>
        <time>2020-08-02T17:18:32.394Z</time>
      </trkpt>
      <trkpt lat="48.78452" lon="-0.40344">
        <ele>192.901008</ele>
        <time>2020-08-02T17:18:57.038Z</time>
      </trkpt>
      <trkpt lat="48.7845" lon="-0.40335">
        <ele>193.370984</ele>
        <time>2020-08-02T17:19:01.743Z</time>
      </trkpt>
      <trkpt lat="48.78388" lon="-0.40274">
        <ele>198.864053</ele>
        <time>2020-08-02T17:19:54.348Z</time>
      </trkpt>
      <trkpt lat="48.78351" lon="-0.40258">
        <ele>201.681813</ele>
        <time>2020-08-02T17:20:18.755Z</time>
      </trkpt>
      <trkpt lat="48.78333" lon="-0.40227">
        <ele>203.677963</ele>
        <time>2020-08-02T17:20:37.621Z</time>
      </trkpt>
      <trkpt lat="48.78289" lon="-0.40097">
        <ele>210.009239</ele>
        <time>2020-08-02T17:21:40.294Z</time>
      </trkpt>
      <trkpt lat="48.7828" lon="-0.40058">
        <ele>211.685129</ele>
        <time>2020-08-02T17:21:56.433Z</time>
      </trkpt>
      <trkpt lat="48.7828" lon="-0.40058">
        <ele>211.685129</ele>
        <time>2020-08-02T17:21:56.550Z</time>
      </trkpt>
      <trkpt lat="48.78262" lon="-0.4005">
        <ele>212.882399</ele>
        <time>2020-08-02T17:22:08.421Z</time>
      </trkpt>
      <trkpt lat="48.78229" lon="-0.40025">
        <ele>215.179656</ele>
        <time>2020-08-02T17:22:30.844Z</time>
      </trkpt>
      <trkpt lat="48.78196" lon="-0.40021">
        <ele>217.194349</ele>
        <time>2020-08-02T17:22:50.269Z</time>
      </trkpt>
      <trkpt lat="48.7819" lon="-0.40019">
        <ele>217.532479</ele>
        <time>2020-08-02T17:22:55.486Z</time>
      </trkpt>
      <trkpt lat="48.78169" lon="-0.39852">
        <ele>224.054342</ele>
        <time>2020-08-02T17:23:51.020Z</time>
      </trkpt>
      <trkpt lat="48.78162" lon="-0.39776">
        <ele>226.959115</ele>
        <time>2020-08-02T17:24:15.637Z</time>
      </trkpt>
      <trkpt lat="48.78171" lon="-0.39627">
        <ele>232.428549</ele>
        <time>2020-08-02T17:25:00.877Z</time>
      </trkpt>
      <trkpt lat="48.78175" lon="-0.396">
        <ele>233.454467</ele>
        <time>2020-08-02T17:25:09.805Z</time>
      </trkpt>
      <trkpt lat="48.78182" lon="-0.39495">
        <ele>237.301961</ele>
        <time>2020-08-02T17:25:44.371Z</time>
      </trkpt>
      <trkpt lat="48.78168" lon="-0.39442">
        <ele>239.30806</ele>
        <time>2020-08-02T17:26:03.784Z</time>
      </trkpt>
      <trkpt lat="48.78171" lon="-0.39382">
        <ele>241.392481</ele>
        <time>2020-08-02T17:26:23.679Z</time>
      </trkpt>
      <trkpt lat="48.78181" lon="-0.39346">
        <ele>242.751876</ele>
        <time>2020-08-02T17:26:35.783Z</time>
      </trkpt>
      <trkpt lat="48.78172" lon="-0.39334">
        <ele>243.373341</ele>
        <time>2020-08-02T17:26:44.019Z</time>
      </trkpt>
      <trkpt lat="48.78165" lon="-0.39325">
        <ele>243.873094</ele>
        <time>2020-08-02T17:26:50.652Z</time>
      </trkpt>
      <trkpt lat="48.7814" lon="-0.39322">
        <ele>245.146084</ele>
        <time>2020-08-02T17:27:07.414Z</time>
      </trkpt>
      <trkpt lat="48.78134" lon="-0.39335">
        <ele>245.714651</ele>
        <time>2020-08-02T17:27:14.956Z</time>
      </trkpt>
      <trkpt lat="48.781" lon="-0.39351">
        <ele>246.945541</ele>
        <time>2020-08-02T17:27:39.249Z</time>
      </trkpt>
      <trkpt lat="48.78038" lon="-0.39319">
        <ele>248.470435</ele>
        <time>2020-08-02T17:28:24.792Z</time>
      </trkpt>
      <trkpt lat="48.78018" lon="-0.39305">
        <ele>248.986939</ele>
        <time>2020-08-02T17:28:40.203Z</time>
      </trkpt>
      <trkpt lat="48.78018" lon="-0.39305">
        <ele>248.986939</ele>
        <time>2020-08-02T17:28:40.209Z</time>
      </trkpt>
      <trkpt lat="48.78013" lon="-0.3934">
        <ele>249.540783</ele>
        <time>2020-08-02T17:28:56.768Z</time>
      </trkpt>
      <trkpt lat="48.78014" lon="-0.39362">
        <ele>249.885284</ele>
        <time>2020-08-02T17:29:07.088Z</time>
      </trkpt>
      <trkpt lat="48.78009" lon="-0.3938">
        <ele>250.189936</ele>
        <time>2020-08-02T17:29:16.200Z</time>
      </trkpt>
      <trkpt lat="48.7794" lon="-0.39439">
        <ele>250.894687</ele>
        <time>2020-08-02T17:30:11.195Z</time>
      </trkpt>
      <trkpt lat="48.77923" lon="-0.3947">
        <ele>251.001556</ele>
        <time>2020-08-02T17:30:29.229Z</time>
      </trkpt>
      <trkpt lat="48.77878" lon="-0.39483">
        <ele>251.189338</ele>
        <time>2020-08-02T17:31:00.985Z</time>
      </trkpt>
      <trkpt lat="48.77867" lon="-0.39495">
        <ele>251.24636</ele>
        <time>2020-08-02T17:31:10.628Z</time>
      </trkpt>
      <trkpt lat="48.77867" lon="-0.39505">
        <ele>251.271246</ele>
        <time>2020-08-02T17:31:14.831Z</time>
      </trkpt>
      <trkpt lat="48.77863" lon="-0.39545">
        <ele>251.380797</ele>
        <time>2020-08-02T17:31:33.401Z</time>
      </trkpt>
      <trkpt lat="48.77853" lon="-0.39575">
        <ele>251.59631</ele>
        <time>2020-08-02T17:31:48.952Z</time>
      </trkpt>
      <trkpt lat="48.77823" lon="-0.39633">
        <ele>252.096247</ele>
        <time>2020-08-02T17:32:22.667Z</time>
      </trkpt>
      <trkpt lat="48.77817" lon="-0.39748">
        <ele>252.881392</ele>
        <time>2020-08-02T17:33:15.646Z</time>
      </trkpt>
      <trkpt lat="48.7781" lon="-0.39782">
        <ele>253.122607</ele>
        <time>2020-08-02T17:33:31.935Z</time>
      </trkpt>
      <trkpt lat="48.77808" lon="-0.39812">
        <ele>253.278136</ele>
        <time>2020-08-02T17:33:45.992Z</time>
      </trkpt>
      <trkpt lat="48.778" lon="-0.39813">
        <ele>253.30819</ele>
        <time>2020-08-02T17:33:48.993Z</time>
      </trkpt>
      <trkpt lat="48.77781" lon="-0.39835">
        <ele>253.392072</ele>
        <time>2020-08-02T17:33:57.660Z</time>
      </trkpt>
      <trkpt lat="48.77748" lon="-0.39859">
        <ele>253.526165</ele>
        <time>2020-08-02T17:34:10.976Z</time>
      </trkpt>
      <trkpt lat="48.7758" lon="-0.40037">
        <ele>253.446548</ele>
        <time>2020-08-02T17:35:15.434Z</time>
      </trkpt>
      <trkpt lat="48.77521" lon="-0.40099">
        <ele>253.12593</ele>
        <time>2020-08-02T17:35:36.552Z</time>
      </trkpt>
      <trkpt lat="48.77472" lon="-0.40161">
        <ele>252.823833</ele>
        <time>2020-08-02T17:35:55.490Z</time>
      </trkpt>
      <trkpt lat="48.77445" lon="-0.40195">
        <ele>252.654406</ele>
        <time>2020-08-02T17:36:06.225Z</time>
      </trkpt>
      <trkpt lat="48.77437" lon="-0.40191">
        <ele>252.615086</ele>
        <time>2020-08-02T17:36:08.822Z</time>
      </trkpt>
      <trkpt lat="48.77415" lon="-0.40162">
        <ele>252.476978</ele>
        <time>2020-08-02T17:36:17.641Z</time>
      </trkpt>
      <trkpt lat="48.77411" lon="-0.40141">
        <ele>252.407375</ele>
        <time>2020-08-02T17:36:22.176Z</time>
      </trkpt>
      <trkpt lat="48.77409" lon="-0.40089">
        <ele>252.240972</ele>
        <time>2020-08-02T17:36:32.893Z</time>
      </trkpt>
      <trkpt lat="48.77409" lon="-0.4006">
        <ele>252.236716</ele>
        <time>2020-08-02T17:36:38.736Z</time>
      </trkpt>
      <trkpt lat="48.77415" lon="-0.40002">
        <ele>252.239856</ele>
        <time>2020-08-02T17:36:50.973Z</time>
      </trkpt>
      <trkpt lat="48.7741" lon="-0.39968">
        <ele>252.24173</ele>
        <time>2020-08-02T17:36:58.928Z</time>
      </trkpt>
      <trkpt lat="48.77386" lon="-0.39929">
        <ele>252.244586</ele>
        <time>2020-08-02T17:37:10.537Z</time>
      </trkpt>
      <trkpt lat="48.77382" lon="-0.39932">
        <ele>252.244917</ele>
        <time>2020-08-02T17:37:11.927Z</time>
      </trkpt>
      <trkpt lat="48.77375" lon="-0.39915">
        <ele>252.246008</ele>
        <time>2020-08-02T17:37:16.140Z</time>
      </trkpt>
      <trkpt lat="48.7736" lon="-0.39884">
        <ele>252.248069</ele>
        <time>2020-08-02T17:37:24.536Z</time>
      </trkpt>
      <trkpt lat="48.77353" lon="-0.39881">
        <ele>252.248627</ele>
        <time>2020-08-02T17:37:26.708Z</time>
      </trkpt>
      <trkpt lat="48.77336" lon="-0.39886">
        <ele>252.245242</ele>
        <time>2020-08-02T17:37:32.362Z</time>
      </trkpt>
      <trkpt lat="48.77314" lon="-0.39873">
        <ele>252.205783</ele>
        <time>2020-08-02T17:37:39.624Z</time>
      </trkpt>
      <trkpt lat="48.77304" lon="-0.39859">
        <ele>252.1833</ele>
        <time>2020-08-02T17:37:43.846Z</time>
      </trkpt>
      <trkpt lat="48.77281" lon="-0.39849">
        <ele>252.142116</ele>
        <time>2020-08-02T17:37:51.355Z</time>
      </trkpt>
      <trkpt lat="48.77191" lon="-0.39739">
        <ele>251.947901</ele>
        <time>2020-08-02T17:38:27.424Z</time>
      </trkpt>
      <trkpt lat="48.77154" lon="-0.39732">
        <ele>251.655294</ele>
        <time>2020-08-02T17:38:39.044Z</time>
      </trkpt>
      <trkpt lat="48.77141" lon="-0.39718">
        <ele>251.528229</ele>
        <time>2020-08-02T17:38:43.942Z</time>
      </trkpt>
      <trkpt lat="48.77086" lon="-0.39692">
        <ele>251.071175</ele>
        <time>2020-08-02T17:39:01.292Z</time>
      </trkpt>
      <trkpt lat="48.77068" lon="-0.39693">
        <ele>250.92668</ele>
        <time>2020-08-02T17:39:06.718Z</time>
      </trkpt>
      <trkpt lat="48.76986" lon="-0.39646">
        <ele>249.548454</ele>
        <time>2020-08-02T17:39:31.822Z</time>
      </trkpt>
      <trkpt lat="48.76972" lon="-0.39648">
        <ele>249.166513</ele>
        <time>2020-08-02T17:39:35.864Z</time>
      </trkpt>
      <trkpt lat="48.76938" lon="-0.3961">
        <ele>248.048377</ele>
        <time>2020-08-02T17:39:47.030Z</time>
      </trkpt>
      <trkpt lat="48.76917" lon="-0.39604">
        <ele>247.477856</ele>
        <time>2020-08-02T17:39:52.464Z</time>
      </trkpt>
      <trkpt lat="48.76889" lon="-0.3961">
        <ele>246.710835</ele>
        <time>2020-08-02T17:39:59.817Z</time>
      </trkpt>
      <trkpt lat="48.76883" lon="-0.39614">
        <ele>246.53686</ele>
        <time>2020-08-02T17:40:01.516Z</time>
      </trkpt>
      <trkpt lat="48.76868" lon="-0.39623">
        <ele>246.092473</ele>
        <time>2020-08-02T17:40:05.923Z</time>
      </trkpt>
      <trkpt lat="48.76864" lon="-0.39627">
        <ele>245.981532</ele>
        <time>2020-08-02T17:40:06.833Z</time>
      </trkpt>
      <trkpt lat="48.76815" lon="-0.39731">
        <ele>242.22824</ele>
        <time>2020-08-02T17:40:27.972Z</time>
      </trkpt>
      <trkpt lat="48.76811" lon="-0.39812">
        <ele>239.724468</ele>
        <time>2020-08-02T17:40:41.067Z</time>
      </trkpt>
      <trkpt lat="48.76774" lon="-0.39826">
        <ele>237.949756</ele>
        <time>2020-08-02T17:40:50.122Z</time>
      </trkpt>
      <trkpt lat="48.76669" lon="-0.39891">
        <ele>230.155481</ele>
        <time>2020-08-02T17:41:16.583Z</time>
      </trkpt>
      <trkpt lat="48.7666" lon="-0.39904">
        <ele>229.283829</ele>
        <time>2020-08-02T17:41:19.244Z</time>
      </trkpt>
      <trkpt lat="48.76646" lon="-0.39922">
        <ele>227.95663</ele>
        <time>2020-08-02T17:41:23.524Z</time>
      </trkpt>
      <trkpt lat="48.76629" lon="-0.39955">
        <ele>225.960176</ele>
        <time>2020-08-02T17:41:29.617Z</time>
      </trkpt>
      <trkpt lat="48.76609" lon="-0.39981">
        <ele>223.974763</ele>
        <time>2020-08-02T17:41:35.259Z</time>
      </trkpt>
      <trkpt lat="48.76583" lon="-0.40008">
        <ele>220.590425</ele>
        <time>2020-08-02T17:41:42.248Z</time>
      </trkpt>
      <trkpt lat="48.76569" lon="-0.40033">
        <ele>218.372241</ele>
        <time>2020-08-02T17:41:46.908Z</time>
      </trkpt>
      <trkpt lat="48.76559" lon="-0.40043">
        <ele>217.081323</ele>
        <time>2020-08-02T17:41:49.441Z</time>
      </trkpt>
      <trkpt lat="48.76522" lon="-0.40062">
        <ele>213.009856</ele>
        <time>2020-08-02T17:41:57.687Z</time>
      </trkpt>
      <trkpt lat="48.76522" lon="-0.401">
        <ele>210.361502</ele>
        <time>2020-08-02T17:42:03.044Z</time>
      </trkpt>
      <trkpt lat="48.76521" lon="-0.40151">
        <ele>206.867383</ele>
        <time>2020-08-02T17:42:10.087Z</time>
      </trkpt>
      <trkpt lat="48.7649" lon="-0.40161">
        <ele>203.482385</ele>
        <time>2020-08-02T17:42:16.808Z</time>
      </trkpt>
      <trkpt lat="48.7649" lon="-0.40187">
        <ele>201.685137</ele>
        <time>2020-08-02T17:42:20.302Z</time>
      </trkpt>
      <trkpt lat="48.76482" lon="-0.40218">
        <ele>199.340195</ele>
        <time>2020-08-02T17:42:25.019Z</time>
      </trkpt>
      <trkpt lat="48.76485" lon="-0.40236">
        <ele>198.016718</ele>
        <time>2020-08-02T17:42:27.692Z</time>
      </trkpt>
      <trkpt lat="48.76459" lon="-0.40365">
        <ele>188.595027</ele>
        <time>2020-08-02T17:42:46.703Z</time>
      </trkpt>
      <trkpt lat="48.76358" lon="-0.40383">
        <ele>181.631113</ele>
        <time>2020-08-02T17:43:09.285Z</time>
      </trkpt>
      <trkpt lat="48.76342" lon="-0.40402">
        <ele>180.43235</ele>
        <time>2020-08-02T17:43:14.010Z</time>
      </trkpt>
      <trkpt lat="48.76253" lon="-0.40411">
        <ele>175.85269</ele>
        <time>2020-08-02T17:43:36.425Z</time>
      </trkpt>
      <trkpt lat="48.76226" lon="-0.40408">
        <ele>175.978236</ele>
        <time>2020-08-02T17:43:44.330Z</time>
      </trkpt>
      <trkpt lat="48.76212" lon="-0.40397">
        <ele>176.047586</ele>
        <time>2020-08-02T17:43:48.952Z</time>
      </trkpt>
      <trkpt lat="48.76182" lon="-0.40354">
        <ele>176.234907</ele>
        <time>2020-08-02T17:44:03.114Z</time>
      </trkpt>
      <trkpt lat="48.76175" lon="-0.4034">
        <ele>176.287205</ele>
        <time>2020-08-02T17:44:07.457Z</time>
      </trkpt>
      <trkpt lat="48.76177" lon="-0.4032">
        <ele>176.350413</ele>
        <time>2020-08-02T17:44:12.841Z</time>
      </trkpt>
      <trkpt lat="48.76182" lon="-0.40303">
        <ele>176.404527</ele>
        <time>2020-08-02T17:44:17.807Z</time>
      </trkpt>
      <trkpt lat="48.76193" lon="-0.40298">
        <ele>176.456874</ele>
        <time>2020-08-02T17:44:22.561Z</time>
      </trkpt>
      <trkpt lat="48.76203" lon="-0.40241">
        <ele>176.730601</ele>
        <time>2020-08-02T17:44:39.791Z</time>
      </trkpt>
      <trkpt lat="48.76213" lon="-0.40223">
        <ele>177.379925</ele>
        <time>2020-08-02T17:44:47.289Z</time>
      </trkpt>
      <trkpt lat="48.76222" lon="-0.40192">
        <ele>178.329009</ele>
        <time>2020-08-02T17:44:58.460Z</time>
      </trkpt>
      <trkpt lat="48.76214" lon="-0.40133">
        <ele>179.996686</ele>
        <time>2020-08-02T17:45:18.940Z</time>
      </trkpt>
      <trkpt lat="48.76212" lon="-0.40119">
        <ele>180.381711</ele>
        <time>2020-08-02T17:45:24.032Z</time>
      </trkpt>
      <trkpt lat="48.76224" lon="-0.40059">
        <ele>182.105156</ele>
        <time>2020-08-02T17:45:46.470Z</time>
      </trkpt>
      <trkpt lat="48.76212" lon="-0.39984">
        <ele>184.278314</ele>
        <time>2020-08-02T17:46:15.273Z</time>
      </trkpt>
      <trkpt lat="48.76217" lon="-0.39928">
        <ele>186.553033</ele>
        <time>2020-08-02T17:46:37.172Z</time>
      </trkpt>
      <trkpt lat="48.76209" lon="-0.3989">
        <ele>188.145857</ele>
        <time>2020-08-02T17:46:53.216Z</time>
      </trkpt>
      <trkpt lat="48.7622" lon="-0.39806">
        <ele>191.641819</ele>
        <time>2020-08-02T17:47:29.392Z</time>
      </trkpt>
      <trkpt lat="48.76241" lon="-0.39679">
        <ele>197.182282</ele>
        <time>2020-08-02T17:48:26.027Z</time>
      </trkpt>
      <trkpt lat="48.76261" lon="-0.39616">
        <ele>200.433492</ele>
        <time>2020-08-02T17:48:56.981Z</time>
      </trkpt>
      <trkpt lat="48.76284" lon="-0.39596">
        <ele>202.309761</ele>
        <time>2020-08-02T17:49:14.921Z</time>
      </trkpt>
      <trkpt lat="48.76449" lon="-0.39476">
        <ele>214.5915</ele>
        <time>2020-08-02T17:51:18.731Z</time>
      </trkpt>
      <trkpt lat="48.76455" lon="-0.39432">
        <ele>216.502234</ele>
        <time>2020-08-02T17:51:37.280Z</time>
      </trkpt>
      <trkpt lat="48.76477" lon="-0.39402">
        <ele>218.398177</ele>
        <time>2020-08-02T17:51:55.404Z</time>
      </trkpt>
      <trkpt lat="48.76456" lon="-0.39324">
        <ele>220.990804</ele>
        <time>2020-08-02T17:52:27.512Z</time>
      </trkpt>
      <trkpt lat="48.76257" lon="-0.39332">
        <ele>227.390521</ele>
        <time>2020-08-02T17:54:03.128Z</time>
      </trkpt>
      <trkpt lat="48.76192" lon="-0.39306">
        <ele>228.581717</ele>
        <time>2020-08-02T17:54:29.749Z</time>
      </trkpt>
      <trkpt lat="48.76189" lon="-0.39301">
        <ele>228.667019</ele>
        <time>2020-08-02T17:54:32.008Z</time>
      </trkpt>
      <trkpt lat="48.7617" lon="-0.3927">
        <ele>229.147996</ele>
        <time>2020-08-02T17:54:41.416Z</time>
      </trkpt>
      <trkpt lat="48.76179" lon="-0.3926">
        <ele>229.332817</ele>
        <time>2020-08-02T17:54:44.272Z</time>
      </trkpt>
      <trkpt lat="48.76153" lon="-0.39239">
        <ele>229.466517</ele>
        <time>2020-08-02T17:54:50.255Z</time>
      </trkpt>
      <trkpt lat="48.76109" lon="-0.39199">
        <ele>229.187977</ele>
        <time>2020-08-02T17:55:00.292Z</time>
      </trkpt>
      <trkpt lat="48.7607" lon="-0.39149">
        <ele>228.910493</ele>
        <time>2020-08-02T17:55:09.244Z</time>
      </trkpt>
      <trkpt lat="48.76025" lon="-0.39138">
        <ele>228.659021</ele>
        <time>2020-08-02T17:55:17.220Z</time>
      </trkpt>
      <trkpt lat="48.75961" lon="-0.39064">
        <ele>229.313316</ele>
        <time>2020-08-02T17:55:32.771Z</time>
      </trkpt>
      <trkpt lat="48.75925" lon="-0.39034">
        <ele>229.771193</ele>
        <time>2020-08-02T17:55:43.516Z</time>
      </trkpt>
      <trkpt lat="48.7592" lon="-0.39023">
        <ele>229.871848</ele>
        <time>2020-08-02T17:55:49.223Z</time>
      </trkpt>
      <trkpt lat="48.75926" lon="-0.3893">
        <ele>230.561168</ele>
        <time>2020-08-02T17:56:13.184Z</time>
      </trkpt>
      <trkpt lat="48.75927" lon="-0.3891">
        <ele>230.831497</ele>
        <time>2020-08-02T17:56:21.233Z</time>
      </trkpt>
      <trkpt lat="48.75925" lon="-0.38864">
        <ele>231.555492</ele>
        <time>2020-08-02T17:56:34.931Z</time>
      </trkpt>
      <trkpt lat="48.75943" lon="-0.3878">
        <ele>232.914655</ele>
        <time>2020-08-02T17:57:02.297Z</time>
      </trkpt>
      <trkpt lat="48.76003" lon="-0.38666">
        <ele>234.859766</ele>
        <time>2020-08-02T17:57:43.127Z</time>
      </trkpt>
      <trkpt lat="48.7584" lon="-0.38534">
        <ele>235.101653</ele>
        <time>2020-08-02T17:58:41.712Z</time>
      </trkpt>
      <trkpt lat="48.75725" lon="-0.38417">
        <ele>233.806806</ele>
        <time>2020-08-02T17:59:22.496Z</time>
      </trkpt>
      <trkpt lat="48.7558" lon="-0.38245">
        <ele>230.549286</ele>
        <time>2020-08-02T18:00:13.612Z</time>
      </trkpt>
      <trkpt lat="48.75555" lon="-0.38237">
        <ele>230.009</ele>
        <time>2020-08-02T18:00:20.350Z</time>
      </trkpt>
      <trkpt lat="48.75519" lon="-0.38249">
        <ele>229.005044</ele>
        <time>2020-08-02T18:00:30.235Z</time>
      </trkpt>
      <trkpt lat="48.75489" lon="-0.3823">
        <ele>228.123094</ele>
        <time>2020-08-02T18:00:38.870Z</time>
      </trkpt>
      <trkpt lat="48.75405" lon="-0.38122">
        <ele>225.163624</ele>
        <time>2020-08-02T18:01:07.640Z</time>
      </trkpt>
      <trkpt lat="48.75321" lon="-0.38236">
        <ele>222.069516</ele>
        <time>2020-08-02T18:01:37.618Z</time>
      </trkpt>
      <trkpt lat="48.75298" lon="-0.38279">
        <ele>221.076806</ele>
        <time>2020-08-02T18:01:47.133Z</time>
      </trkpt>
      <trkpt lat="48.75273" lon="-0.38325">
        <ele>220.026669</ele>
        <time>2020-08-02T18:01:57.657Z</time>
      </trkpt>
      <trkpt lat="48.75271" lon="-0.38371">
        <ele>219.267467</ele>
        <time>2020-08-02T18:02:05.685Z</time>
      </trkpt>
      <trkpt lat="48.75246" lon="-0.38447">
        <ele>217.861205</ele>
        <time>2020-08-02T18:02:20.601Z</time>
      </trkpt>
      <trkpt lat="48.75217" lon="-0.38514">
        <ele>216.543939</ele>
        <time>2020-08-02T18:02:34.645Z</time>
      </trkpt>
      <trkpt lat="48.7522" lon="-0.3855">
        <ele>215.959574</ele>
        <time>2020-08-02T18:02:41.145Z</time>
      </trkpt>
      <trkpt lat="48.75208" lon="-0.38595">
        <ele>215.672198</ele>
        <time>2020-08-02T18:02:50.144Z</time>
      </trkpt>
      <trkpt lat="48.75196" lon="-0.3864">
        <ele>215.385705</ele>
        <time>2020-08-02T18:02:59.412Z</time>
      </trkpt>
      <trkpt lat="48.75176" lon="-0.38713">
        <ele>214.923021</ele>
        <time>2020-08-02T18:03:15.169Z</time>
      </trkpt>
      <trkpt lat="48.75227" lon="-0.38771">
        <ele>214.352732</ele>
        <time>2020-08-02T18:03:27.071Z</time>
      </trkpt>
      <trkpt lat="48.75265" lon="-0.38811">
        <ele>213.897516</ele>
        <time>2020-08-02T18:03:35.477Z</time>
      </trkpt>
      <trkpt lat="48.75289" lon="-0.38873">
        <ele>213.424433</ele>
        <time>2020-08-02T18:03:44.410Z</time>
      </trkpt>
      <trkpt lat="48.75319" lon="-0.3899">
        <ele>212.613188</ele>
        <time>2020-08-02T18:03:58.080Z</time>
      </trkpt>
      <trkpt lat="48.75319" lon="-0.3899">
        <ele>212.613188</ele>
        <time>2020-08-02T18:03:58.410Z</time>
      </trkpt>
      <trkpt lat="48.75319" lon="-0.3899">
        <ele>212.613188</ele>
        <time>2020-08-02T18:03:58.453Z</time>
      </trkpt>
      <trkpt lat="48.75324" lon="-0.39009">
        <ele>212.083075</ele>
        <time>2020-08-02T18:04:00.457Z</time>
      </trkpt>
      <trkpt lat="48.75368" lon="-0.39143">
        <ele>207.480802</ele>
        <time>2020-08-02T18:04:14.310Z</time>
      </trkpt>
      <trkpt lat="48.7555" lon="-0.39475">
        <ele>190.185816</ele>
        <time>2020-08-02T18:04:50.409Z</time>
      </trkpt>
      <trkpt lat="48.75616" lon="-0.39586">
        <ele>185.330428</ele>
        <time>2020-08-02T18:05:03.270Z</time>
      </trkpt>
      <trkpt lat="48.75596" lon="-0.39648">
        <ele>183.113619</ele>
        <time>2020-08-02T18:05:09.856Z</time>
      </trkpt>
      <trkpt lat="48.75587" lon="-0.39685">
        <ele>183.462787</ele>
        <time>2020-08-02T18:05:13.933Z</time>
      </trkpt>
      <trkpt lat="48.75574" lon="-0.39712">
        <ele>183.855423</ele>
        <time>2020-08-02T18:05:18.175Z</time>
      </trkpt>
      <trkpt lat="48.75516" lon="-0.39803">
        <ele>185.319182</ele>
        <time>2020-08-02T18:05:42.388Z</time>
      </trkpt>
      <trkpt lat="48.75504" lon="-0.3983">
        <ele>185.693798</ele>
        <time>2020-08-02T18:05:52.431Z</time>
      </trkpt>
      <trkpt lat="48.75496" lon="-0.3986">
        <ele>186.070339</ele>
        <time>2020-08-02T18:06:01.782Z</time>
      </trkpt>
      <trkpt lat="48.75488" lon="-0.39925">
        <ele>187.875748</ele>
        <time>2020-08-02T18:06:22.059Z</time>
      </trkpt>
      <trkpt lat="48.7548" lon="-0.39943">
        <ele>188.536323</ele>
        <time>2020-08-02T18:06:27.155Z</time>
      </trkpt>
      <trkpt lat="48.75465" lon="-0.39963">
        <ele>189.449751</ele>
        <time>2020-08-02T18:06:36.311Z</time>
      </trkpt>
      <trkpt lat="48.75465" lon="-0.39987">
        <ele>190.18032</ele>
        <time>2020-08-02T18:06:42.035Z</time>
      </trkpt>
      <trkpt lat="48.75466" lon="-0.40001">
        <ele>190.62677</ele>
        <time>2020-08-02T18:06:46.092Z</time>
      </trkpt>
      <trkpt lat="48.75457" lon="-0.40016">
        <ele>191.241211</ele>
        <time>2020-08-02T18:06:53.116Z</time>
      </trkpt>
      <trkpt lat="48.75433" lon="-0.40052">
        <ele>192.812522</ele>
        <time>2020-08-02T18:07:09.081Z</time>
      </trkpt>
      <trkpt lat="48.75431" lon="-0.40066">
        <ele>193.24582</ele>
        <time>2020-08-02T18:07:13.147Z</time>
      </trkpt>
      <trkpt lat="48.75438" lon="-0.4009">
        <ele>194.03332</ele>
        <time>2020-08-02T18:07:22.168Z</time>
      </trkpt>
      <trkpt lat="48.75464" lon="-0.40118">
        <ele>195.45948</ele>
        <time>2020-08-02T18:07:37.987Z</time>
      </trkpt>
      <trkpt lat="48.75487" lon="-0.4013">
        <ele>196.558351</ele>
        <time>2020-08-02T18:07:49.768Z</time>
      </trkpt>
      <trkpt lat="48.75505" lon="-0.40168">
        <ele>197.943911</ele>
        <time>2020-08-02T18:08:04.316Z</time>
      </trkpt>
      <trkpt lat="48.75508" lon="-0.40218">
        <ele>199.429609</ele>
        <time>2020-08-02T18:08:19.475Z</time>
      </trkpt>
      <trkpt lat="48.75503" lon="-0.4024">
        <ele>200.091604</ele>
        <time>2020-08-02T18:08:27.283Z</time>
      </trkpt>
      <trkpt lat="48.75502" lon="-0.40241">
        <ele>200.142126</ele>
        <time>2020-08-02T18:08:28.701Z</time>
      </trkpt>
      <trkpt lat="48.75475" lon="-0.40331">
        <ele>203.060332</ele>
        <time>2020-08-02T18:09:03.575Z</time>
      </trkpt>
      <trkpt lat="48.75439" lon="-0.40528">
        <ele>209.034374</ele>
        <time>2020-08-02T18:10:17.769Z</time>
      </trkpt>
      <trkpt lat="48.75433" lon="-0.40548">
        <ele>209.692124</ele>
        <time>2020-08-02T18:10:25.663Z</time>
      </trkpt>
      <trkpt lat="48.75417" lon="-0.4056">
        <ele>210.486285</ele>
        <time>2020-08-02T18:10:34.460Z</time>
      </trkpt>
      <trkpt lat="48.75406" lon="-0.40572">
        <ele>211.021499</ele>
        <time>2020-08-02T18:10:41.414Z</time>
      </trkpt>
      <trkpt lat="48.75381" lon="-0.40697">
        <ele>214.410364</ele>
        <time>2020-08-02T18:11:25.356Z</time>
      </trkpt>
      <trkpt lat="48.75386" lon="-0.40777">
        <ele>216.511525</ele>
        <time>2020-08-02T18:11:52.792Z</time>
      </trkpt>
      <trkpt lat="48.75403" lon="-0.40868">
        <ele>219.146396</ele>
        <time>2020-08-02T18:12:24.920Z</time>
      </trkpt>
      <trkpt lat="48.75402" lon="-0.40896">
        <ele>219.973079</ele>
        <time>2020-08-02T18:12:34.804Z</time>
      </trkpt>
      <trkpt lat="48.75377" lon="-0.4102">
        <ele>223.780696</ele>
        <time>2020-08-02T18:13:21.713Z</time>
      </trkpt>
      <trkpt lat="48.75359" lon="-0.4105">
        <ele>224.960455</ele>
        <time>2020-08-02T18:13:36.494Z</time>
      </trkpt>
      <trkpt lat="48.75326" lon="-0.41262">
        <ele>231.540595</ele>
        <time>2020-08-02T18:14:56.778Z</time>
      </trkpt>
      <trkpt lat="48.75353" lon="-0.414">
        <ele>235.335699</ele>
        <time>2020-08-02T18:15:47.012Z</time>
      </trkpt>
      <trkpt lat="48.7534" lon="-0.41464">
        <ele>236.782592</ele>
        <time>2020-08-02T18:16:08.999Z</time>
      </trkpt>
      <trkpt lat="48.75312" lon="-0.41539">
        <ele>238.643121</ele>
        <time>2020-08-02T18:16:35.943Z</time>
      </trkpt>
      <trkpt lat="48.75252" lon="-0.41741">
        <ele>241.764854</ele>
        <time>2020-08-02T18:17:37.121Z</time>
      </trkpt>
      <trkpt lat="48.75373" lon="-0.41814">
        <ele>243.624704</ele>
        <time>2020-08-02T18:18:26.847Z</time>
      </trkpt>
      <trkpt lat="48.75426" lon="-0.41846">
        <ele>244.224887</ele>
        <time>2020-08-02T18:18:47.674Z</time>
      </trkpt>
      <trkpt lat="48.75429" lon="-0.41872">
        <ele>244.415552</ele>
        <time>2020-08-02T18:18:54.409Z</time>
      </trkpt>
      <trkpt lat="48.75432" lon="-0.41967">
        <ele>245.001978</ele>
        <time>2020-08-02T18:19:09.905Z</time>
      </trkpt>
      <trkpt lat="48.7541" lon="-0.4219">
        <ele>246.010308</ele>
        <time>2020-08-02T18:19:45.302Z</time>
      </trkpt>
      <trkpt lat="48.7541" lon="-0.42314">
        <ele>246.375525</ele>
        <time>2020-08-02T18:20:03.442Z</time>
      </trkpt>
      <trkpt lat="48.7537" lon="-0.4251">
        <ele>246.919782</ele>
        <time>2020-08-02T18:20:33.144Z</time>
      </trkpt>
      <trkpt lat="48.7535" lon="-0.42566">
        <ele>247.092238</ele>
        <time>2020-08-02T18:20:42.585Z</time>
      </trkpt>
      <trkpt lat="48.75285" lon="-0.42518">
        <ele>247.388249</ele>
        <time>2020-08-02T18:20:58.091Z</time>
      </trkpt>
      <trkpt lat="48.75185" lon="-0.4249">
        <ele>247.904711</ele>
        <time>2020-08-02T18:21:19.551Z</time>
      </trkpt>
      <trkpt lat="48.75129" lon="-0.42467">
        <ele>248.24104</ele>
        <time>2020-08-02T18:21:31.530Z</time>
      </trkpt>
      <trkpt lat="48.75031" lon="-0.42411">
        <ele>249.444536</ele>
        <time>2020-08-02T18:21:56.721Z</time>
      </trkpt>
      <trkpt lat="48.75005" lon="-0.42397">
        <ele>249.968146</ele>
        <time>2020-08-02T18:22:03.995Z</time>
      </trkpt>
      <trkpt lat="48.74946" lon="-0.42521">
        <ele>251.933714</ele>
        <time>2020-08-02T18:22:34.869Z</time>
      </trkpt>
      <trkpt lat="48.74907" lon="-0.42619">
        <ele>254.170292</ele>
        <time>2020-08-02T18:23:00.879Z</time>
      </trkpt>
      <trkpt lat="48.74812" lon="-0.42924">
        <ele>261.095631</ele>
        <time>2020-08-02T18:24:19.669Z</time>
      </trkpt>
      <trkpt lat="48.74783" lon="-0.43056">
        <ele>263.751774</ele>
        <time>2020-08-02T18:24:51.425Z</time>
      </trkpt>
      <trkpt lat="48.74765" lon="-0.43132">
        <ele>264.886984</ele>
        <time>2020-08-02T18:25:08.981Z</time>
      </trkpt>
      <trkpt lat="48.74709" lon="-0.43357">
        <ele>267.095214</ele>
        <time>2020-08-02T18:25:51.972Z</time>
      </trkpt>
      <trkpt lat="48.74697" lon="-0.43399">
        <ele>267.095214</ele>
        <time>2020-08-02T18:25:58.159Z</time>
      </trkpt>
      <trkpt lat="48.74687" lon="-0.43588">
        <ele>267.095214</ele>
        <time>2020-08-02T18:26:21.784Z</time>
      </trkpt>
    </trkseg>
  </trk>
</gpx>